Time;durP1;ratioP1;P1;durP2;ratioP2;P2;SDS_P1;SDS_P2;PMS_P1;PMS_P2;Temp;Humidity;BMP_temperature;BMP_pressure;BME280_temperature;BME280_humidity;BME280_pressure;Samples;Min_cycle;Max_cycle;Signal;HPM_P1;HPM_P2
2022/04/24 00:01:48;;;;;;;;;15.75;15.75;;;;;17.31;82.85;99522.16;5081175;27;45239;-82
2022/04/24 00:04:14;;;;;;;;;21.00;20.50;;;;;17.27;82.84;99516.94;5096329;27;45274;-83
2022/04/24 00:06:41;;;;;;;;;24.50;21.50;;;;;17.13;82.62;99499.53;5080105;27;45183;-82
2022/04/24 00:09:07;;;;;;;;;23.50;23.00;;;;;17.36;83.26;99536.94;5079097;27;46213;-84
2022/04/24 00:11:32;;;;;;;;;26.50;23.75;;;;;17.25;83.25;99521.28;5080125;27;45827;-83
2022/04/24 00:13:58;;;;;;;;;27.75;24.25;;;;;17.22;83.32;99514.34;5086659;27;44758;-86
2022/04/24 00:16:24;;;;;;;;;22.00;20.00;;;;;17.17;84.34;99514.31;5090523;27;45407;-85
2022/04/24 00:18:49;;;;;;;;;23.50;21.25;;;;;17.23;83.99;99529.13;5085746;27;47073;-83
2022/04/24 00:21:15;;;;;;;;;21.50;19.25;;;;;17.01;85.04;99487.34;5085728;27;45321;-85
2022/04/24 00:23:41;;;;;;;;;18.00;16.50;;;;;17.03;84.90;99508.28;5084448;28;45376;-86
2022/04/24 00:26:06;;;;;;;;;15.75;14.75;;;;;16.98;85.38;99504.78;5083066;27;45518;-86
2022/04/24 00:28:32;;;;;;;;;16.25;15.25;;;;;17.06;85.56;99526.56;5085338;27;46414;-86
2022/04/24 00:30:58;;;;;;;;;19.75;15.50;;;;;16.99;85.46;99517.88;5081524;27;45302;-86
2022/04/24 00:33:24;;;;;;;;;15.25;14.50;;;;;16.88;85.67;99506.53;5080320;27;45241;-87
2022/04/24 00:35:50;;;;;;;;;15.50;13.50;;;;;16.95;85.57;99521.38;5079593;27;45492;-84
2022/04/24 00:38:15;;;;;;;;;16.50;16.25;;;;;16.86;86.21;99510.91;5078159;27;45315;-85
2022/04/24 00:40:45;;;;;;;;;13.75;13.75;;;;;16.87;85.79;99517.88;5081788;27;45160;-86
2022/04/24 00:43:11;;;;;;;;;14.50;13.50;;;;;16.81;85.73;99521.38;5081073;27;45343;-85
2022/04/24 00:45:36;;;;;;;;;17.75;16.75;;;;;16.75;85.71;99503.06;5079911;27;45566;-86
2022/04/24 00:48:02;;;;;;;;;16.25;15.00;;;;;16.72;86.18;99508.31;5078601;27;46109;-86
2022/04/24 00:50:28;;;;;;;;;16.25;14.25;;;;;16.71;85.27;99502.19;5078745;27;45255;-85
2022/04/24 00:52:54;;;;;;;;;15.25;14.25;;;;;16.79;86.15;99528.34;5076914;28;45330;-85
2022/04/24 00:55:23;;;;;;;;;18.25;16.25;;;;;16.77;85.30;99516.16;5078088;27;45277;-84
2022/04/24 00:57:49;;;;;;;;;18.25;17.00;;;;;16.75;86.47;99523.97;5078335;27;45447;-85
2022/04/24 01:00:15;;;;;;;;;13.25;12.75;;;;;16.59;85.85;99506.59;5079991;27;45902;-85
2022/04/24 01:02:41;;;;;;;;;16.50;12.75;;;;;16.60;85.40;99513.56;5086708;27;45369;-86
2022/04/24 01:05:08;;;;;;;;;17.75;16.00;;;;;16.56;85.30;99507.47;5093982;27;45368;-84
2022/04/24 01:07:34;;;;;;;;;13.75;13.75;;;;;16.45;85.31;99497.00;5089238;27;46558;-84
2022/04/24 01:10:00;;;;;;;;;16.25;14.00;;;;;16.66;84.97;99535.31;5089608;27;45321;-86
2022/04/24 01:12:25;;;;;;;;;15.50;14.00;;;;;16.32;84.56;99488.31;5081292;27;45230;-85
2022/04/24 01:14:51;;;;;;;;;16.00;15.00;;;;;16.46;84.58;99518.78;5078334;27;45334;-89
2022/04/24 01:17:17;;;;;;;;;14.00;14.00;;;;;16.44;84.16;99510.94;5093721;27;45534;-86
2022/04/24 01:19:42;;;;;;;;;13.75;13.75;;;;;16.56;83.71;99544.03;5098136;27;45904;-84
2022/04/24 01:22:08;;;;;;;;;12.75;12.75;;;;;16.48;84.23;99536.19;5097955;27;45397;-84
2022/04/24 01:24:34;;;;;;;;;15.75;15.50;;;;;16.47;84.05;99537.06;5098214;27;45358;-84
2022/04/24 01:26:59;;;;;;;;;14.75;12.75;;;;;16.44;84.36;99533.59;5098030;27;46309;-86
2022/04/24 01:29:25;;;;;;;;;18.25;16.00;;;;;16.36;83.94;99528.34;5097543;27;45417;-84
2022/04/24 01:31:52;;;;;;;;;14.00;14.00;;;;;16.41;83.77;99531.84;5098244;27;45340;-85
2022/04/24 01:34:19;;;;;;;;;12.75;12.00;;;;;16.44;83.44;99537.06;5097184;27;45370;-85
2022/04/24 01:36:44;;;;;;;;;14.50;14.50;;;;;16.32;83.43;99527.50;5101996;27;45394;-85
2022/04/24 01:39:10;;;;;;;;;17.00;16.75;;;;;16.37;83.59;99549.25;5103306;27;45446;-84
2022/04/24 01:41:36;;;;;;;;;17.25;16.00;;;;;16.36;83.83;99557.09;5100909;27;45310;-85
2022/04/24 01:44:02;;;;;;;;;17.50;17.00;;;;;16.22;84.35;99539.66;5098759;27;45283;-85
2022/04/24 01:46:28;;;;;;;;;13.25;13.25;;;;;16.02;85.04;99510.03;5096451;27;46952;-85
2022/04/24 01:48:54;;;;;;;;;14.00;13.25;;;;;16.25;85.47;99555.34;5098676;27;45405;-85
2022/04/24 01:51:20;;;;;;;;;14.00;13.25;;;;;16.24;85.24;99561.44;5106242;27;45335;-84
2022/04/24 01:53:45;;;;;;;;;16.75;14.50;;;;;16.19;84.96;99555.34;5106392;27;45402;-84
2022/04/24 01:56:12;;;;;;;;;15.50;12.75;;;;;16.11;85.31;99537.91;5105876;27;45248;-85
2022/04/24 01:58:39;;;;;;;;;13.50;12.25;;;;;16.01;84.60;99513.50;5103105;27;45769;-85
2022/04/24 02:01:06;;;;;;;;;15.75;12.75;;;;;16.17;84.76;99549.25;5097517;27;45449;-85
2022/04/24 02:03:32;;;;;;;;;20.25;14.50;;;;;16.03;84.33;99541.38;5097959;27;45337;-85
2022/04/24 02:05:58;;;;;;;;;16.50;14.00;;;;;15.90;84.50;99527.41;5097700;27;45969;-85
2022/04/24 02:08:24;;;;;;;;;15.00;15.00;;;;;16.04;83.92;99560.53;5097218;27;45378;-85
2022/04/24 02:10:50;;;;;;;;;15.00;13.50;;;;;16.07;84.46;99570.97;5102675;27;45272;-86
2022/04/24 02:13:17;;;;;;;;;14.75;14.75;;;;;15.92;84.12;99545.72;5104341;27;45486;-86
2022/04/24 02:15:45;;;;;;;;;11.75;11.00;;;;;15.97;84.38;99567.47;5098920;27;45483;-85
2022/04/24 02:18:11;;;;;;;;;12.50;12.50;;;;;16.00;84.18;99585.75;5096933;27;45300;-85
2022/04/24 02:20:36;;;;;;;;;14.00;12.50;;;;;16.02;83.94;99585.75;5097242;27;45406;-84
2022/04/24 02:23:03;;;;;;;;;13.75;13.00;;;;;15.83;84.22;99558.69;5100773;27;45606;-86
2022/04/24 02:25:29;;;;;;;;;15.50;14.00;;;;;15.97;83.98;99579.66;5097619;27;46953;-85
2022/04/24 02:27:55;;;;;;;;;11.00;11.00;;;;;15.83;84.41;99561.28;5104913;27;45444;-85
2022/04/24 02:30:28;;;;;;;;;16.25;14.50;;;;;15.84;84.25;99570.88;5119879;27;45388;-85
2022/04/24 02:32:57;;;;;;;;;13.75;13.25;;;;;15.88;84.20;99585.72;5103584;27;45397;-86
2022/04/24 02:35:24;;;;;;;;;15.50;14.00;;;;;15.89;84.60;99590.94;5097540;27;46466;-85
2022/04/24 02:37:49;;;;;;;;;18.50;13.75;;;;;15.88;83.83;99580.50;5102945;27;45422;-85
2022/04/24 02:40:19;;;;;;;;;14.75;12.25;;;;;15.86;83.88;99584.81;5105536;27;45211;-85
2022/04/24 02:42:45;;;;;;;;;10.00;10.00;;;;;15.95;83.26;99592.69;5106477;27;45365;-85
2022/04/24 02:45:11;;;;;;;;;13.75;13.75;;;;;15.65;82.77;99547.31;5105595;27;46044;-86
2022/04/24 02:47:39;;;;;;;;;16.00;12.25;;;;;15.79;82.44;99571.75;5104832;27;45305;-85
2022/04/24 02:50:05;;;;;;;;;13.50;13.25;;;;;15.81;82.17;99576.09;5103559;27;45420;-85
2022/04/24 02:52:31;;;;;;;;;16.75;12.75;;;;;15.74;82.33;99567.38;5103537;27;45255;-85
2022/04/24 02:54:56;;;;;;;;;13.50;12.25;;;;;15.73;82.86;99573.44;5100078;27;45851;-85
2022/04/24 02:57:22;;;;;;;;;17.00;14.50;;;;;15.70;82.59;99581.25;5099800;27;45241;-85
2022/04/24 02:59:49;;;;;;;;;13.25;13.25;;;;;15.85;82.72;99596.13;5100787;27;45332;-85
2022/04/24 03:02:16;;;;;;;;;14.00;13.50;;;;;15.79;82.16;99596.94;5100156;27;45437;-86
2022/04/24 03:04:45;;;;;;;;;12.50;12.25;;;;;15.58;82.74;99567.28;5099692;27;46345;-86
2022/04/24 03:07:12;;;;;;;;;18.50;14.25;;;;;15.54;82.48;99569.88;5098350;27;45750;-86
2022/04/24 03:09:37;;;;;;;;;16.50;13.50;;;;;15.54;82.67;99572.50;5098784;27;45423;-87
2022/04/24 03:12:03;;;;;;;;;17.25;15.50;;;;;15.56;83.01;99581.22;5098674;27;45587;-83
2022/04/24 03:14:29;;;;;;;;;19.00;17.50;;;;;15.59;82.85;99591.66;5100198;27;45352;-85
2022/04/24 03:16:54;;;;;;;;;17.00;15.50;;;;;15.33;83.24;99559.34;5099721;27;45374;-84
2022/04/24 03:19:20;;;;;;;;;20.00;18.75;;;;;15.53;83.55;99595.13;5100069;27;45439;-85
2022/04/24 03:21:46;;;;;;;;;17.75;15.00;;;;;15.58;83.12;99605.56;5104630;27;45459;-85
2022/04/24 03:24:12;;;;;;;;;20.25;17.50;;;;;15.53;83.13;99602.94;5111795;27;45430;-85
2022/04/24 03:26:38;;;;;;;;;17.50;17.00;;;;;15.50;83.14;99589.88;5109641;27;45218;-85
2022/04/24 03:29:03;;;;;;;;;18.50;18.50;;;;;15.67;82.67;99622.97;5103545;27;45376;-85
2022/04/24 03:31:29;;;;;;;;;16.25;13.75;;;;;15.65;82.45;99619.53;5100655;27;45223;-85
2022/04/24 03:33:55;;;;;;;;;17.00;16.50;;;;;15.49;82.19;99593.34;5099185;27;46104;-85
2022/04/24 03:36:20;;;;;;;;;20.50;18.25;;;;;15.41;82.47;99584.63;5100011;27;45304;-85
2022/04/24 03:38:46;;;;;;;;;18.75;16.75;;;;;15.53;84.14;99604.66;5099496;27;45311;-85
2022/04/24 03:41:12;;;;;;;;;18.00;17.50;;;;;15.42;85.16;99600.25;5099868;27;45301;-85
2022/04/24 03:43:37;;;;;;;;;17.50;17.00;;;;;15.40;85.47;99604.59;5099525;27;46116;-85
2022/04/24 03:46:07;;;;;;;;;15.50;14.00;;;;;15.51;86.13;99622.94;5099151;27;45380;-84
2022/04/24 03:48:34;;;;;;;;;17.00;16.50;;;;;15.31;87.53;99595.00;5098395;27;45379;-83
2022/04/24 03:50:59;;;;;;;;;18.00;17.00;;;;;15.30;88.90;99601.09;5107586;27;45255;-86
2022/04/24 03:53:25;;;;;;;;;22.75;20.00;;;;;15.22;89.58;99601.88;5100145;27;46229;-85
2022/04/24 03:55:51;;;;;;;;;24.00;21.00;;;;;15.22;91.38;99614.94;5100822;27;45261;-85
2022/04/24 03:58:16;;;;;;;;;19.25;17.25;;;;;15.21;92.48;99616.69;5104245;27;45266;-85
2022/04/24 04:00:42;;;;;;;;;15.25;13.50;;;;;15.16;92.93;99615.75;5100782;27;45522;-85
2022/04/24 04:03:08;;;;;;;;;24.00;23.00;;;;;15.00;93.67;99605.25;5098690;27;45801;-85
2022/04/24 04:05:37;;;;;;;;;20.00;19.75;;;;;15.01;93.97;99614.78;5097614;27;45728;-86
2022/04/24 04:08:03;;;;;;;;;22.75;19.75;;;;;15.01;93.53;99621.75;5097433;27;45358;-83
2022/04/24 04:10:29;;;;;;;;;21.75;21.25;;;;;14.90;94.98;99606.00;5100939;27;45221;-85
2022/04/24 04:12:55;;;;;;;;;18.00;18.00;;;;;14.91;96.15;99617.31;5107224;27;45304;-85
2022/04/24 04:15:20;;;;;;;;;20.75;20.00;;;;;15.01;96.67;99640.84;5105619;27;45147;-84
2022/04/24 04:17:46;;;;;;;;;22.75;21.25;;;;;14.90;97.50;99623.38;5103208;27;45344;-84
2022/04/24 04:20:12;;;;;;;;;22.25;20.25;;;;;14.90;96.89;99626.84;5100013;27;45429;-84
2022/04/24 04:22:50;;;;;;;;;23.25;20.25;;;;;14.81;98.01;99625.06;5097436;27;46927;-85
2022/04/24 04:25:15;;;;;;;;;24.50;22.75;;;;;14.80;99.20;99636.34;5098389;27;45923;-85
2022/04/24 04:27:41;;;;;;;;;20.00;17.50;;;;;14.78;99.95;99640.66;5098893;27;45420;-85
2022/04/24 04:30:08;;;;;;;;;23.25;22.25;;;;;14.79;100.00;99642.41;5097715;27;45646;-83
2022/04/24 04:32:35;;;;;;;;;15.00;14.00;;;;;14.77;100.00;99646.72;5102933;27;45687;-83
2022/04/24 04:35:01;;;;;;;;;21.75;20.25;;;;;14.65;100.00;99638.78;5103009;27;45223;-83
2022/04/24 04:37:26;;;;;;;;;25.25;23.25;;;;;14.52;100.00;99627.38;5099416;27;45264;-84
2022/04/24 04:39:52;;;;;;;;;21.75;21.50;;;;;14.50;100.00;99622.16;5099066;27;45622;-85
2022/04/24 04:42:17;;;;;;;;;20.50;20.25;;;;;14.64;100.00;99663.06;5097245;27;46747;-84
2022/04/24 04:44:44;;;;;;;;;20.00;17.75;;;;;14.38;100.00;99619.44;5098316;27;45267;-85
2022/04/24 04:47:11;;;;;;;;;22.75;20.25;;;;;14.40;100.00;99626.38;5097189;27;45347;-85
2022/04/24 04:49:36;;;;;;;;;30.00;26.50;;;;;14.52;100.00;99656.88;5093914;27;45516;-86
2022/04/24 04:52:03;;;;;;;;;23.00;21.75;;;;;14.57;100.00;99663.88;5078164;27;45432;-85
2022/04/24 04:54:28;;;;;;;;;20.00;19.50;;;;;14.57;100.00;99667.38;5079012;27;45915;-86
2022/04/24 04:56:55;;;;;;;;;23.25;21.25;;;;;14.57;100.00;99669.09;5081508;28;45445;-85
2022/04/24 04:59:21;;;;;;;;;19.75;19.25;;;;;14.29;100.00;99624.53;5084519;27;45571;-85
2022/04/24 05:01:47;;;;;;;;;20.00;19.75;;;;;14.38;100.00;99643.72;5084919;28;46492;-85
2022/04/24 05:04:13;;;;;;;;;22.25;21.00;;;;;14.24;100.00;99627.09;5092129;27;45951;-87
2022/04/24 05:06:39;;;;;;;;;22.50;20.75;;;;;14.58;100.00;99684.72;5094926;27;45461;-86
2022/04/24 05:09:05;;;;;;;;;24.75;22.00;;;;;14.58;100.00;99684.72;5088658;27;45374;-86
2022/04/24 05:11:31;;;;;;;;;20.50;19.50;;;;;14.48;100.00;99675.97;5085196;27;46173;-85
2022/04/24 05:13:57;;;;;;;;;22.50;21.25;;;;;14.40;100.00;99654.19;5079191;28;45303;-85
2022/04/24 05:16:23;;;;;;;;;25.50;23.00;;;;;14.46;100.00;99674.19;5079053;27;45222;-86
2022/04/24 05:18:50;;;;;;;;;22.50;18.25;;;;;14.35;100.00;99648.03;5076682;28;45463;-86
2022/04/24 05:21:19;;;;;;;;;24.25;23.25;;;;;14.58;100.00;99702.09;5077316;27;46275;-85
2022/04/24 05:23:46;;;;;;;;;22.00;20.50;;;;;14.57;100.00;99709.06;5093165;27;45378;-84
2022/04/24 05:26:14;;;;;;;;;20.50;18.25;;;;;14.28;100.00;99670.53;5076830;28;45394;-84
2022/04/24 05:28:40;;;;;;;;;18.75;18.75;;;;;14.49;100.00;99708.97;5078683;27;45493;-84
2022/04/24 05:31:05;;;;;;;;;27.75;22.25;;;;;14.32;100.00;99676.63;5076301;28;45347;-83
2022/04/24 05:33:31;;;;;;;;;22.75;20.00;;;;;14.39;100.00;99697.56;5077778;27;45463;-84
2022/04/24 05:35:57;;;;;;;;;20.25;20.00;;;;;14.51;100.00;99722.88;5077103;27;45283;-84
2022/04/24 05:38:23;;;;;;;;;23.00;21.50;;;;;14.57;100.00;99721.19;5084457;27;45505;-82
2022/04/24 05:40:49;;;;;;;;;21.00;18.75;;;;;14.54;100.00;99715.06;5078767;27;46090;-85
2022/04/24 05:43:15;;;;;;;;;17.75;16.50;;;;;14.51;100.00;99711.56;5065530;27;45454;-80
2022/04/24 05:45:41;;;;;;;;;21.00;20.75;;;;;14.62;100.00;99724.72;5076987;27;45323;-79
2022/04/24 05:48:07;;;;;;;;;25.25;23.50;;;;;14.58;99.55;99715.97;5079979;27;45603;-84
2022/04/24 05:50:33;;;;;;;;;22.75;20.00;;;;;14.35;99.13;99681.88;5079972;28;46317;-81
2022/04/24 05:52:59;;;;;;;;;25.25;22.50;;;;;14.57;98.10;99722.06;5080245;27;45797;-80
2022/04/24 05:55:25;;;;;;;;;24.50;21.25;;;;;14.54;97.99;99712.47;5075946;27;45966;-84
2022/04/24 05:57:50;;;;;;;;;19.00;19.00;;;;;14.61;97.44;99729.03;5077797;27;45167;-83
2022/04/24 06:00:17;;;;;;;;;23.25;22.25;;;;;14.53;97.82;99718.53;5089828;27;46701;-85
2022/04/24 06:02:43;;;;;;;;;21.00;19.50;;;;;14.64;97.67;99734.28;5076623;27;45949;-81
2022/04/24 06:05:12;;;;;;;;;21.25;18.75;;;;;14.61;98.45;99736.84;5075317;27;45484;-82
2022/04/24 06:07:40;;;;;;;;;27.50;25.00;;;;;14.67;98.18;99736.09;5074730;27;45742;-83
2022/04/24 06:10:06;;;;;;;;;20.50;20.25;;;;;14.69;97.54;99735.22;5073957;28;46948;-79
2022/04/24 06:12:43;;;;;;;;;21.25;21.25;;;;;14.57;97.07;99710.75;5076811;27;45789;-75
2022/04/24 06:15:13;;;;;;;;;23.75;23.25;;;;;14.70;97.16;99736.97;5077226;27;45392;-72
2022/04/24 06:17:39;;;;;;;;;22.50;21.25;;;;;14.68;95.94;99736.13;5078816;27;45299;-81
2022/04/24 06:20:05;;;;;;;;;21.00;20.00;;;;;14.72;96.69;99749.16;5073543;28;46035;-75
2022/04/24 06:22:51;;;;;;;;;21.00;21.00;;;;;14.71;95.02;99743.09;5074823;27;45967;-74
2022/04/24 06:25:18;;;;;;;;;24.50;24.00;;;;;14.74;95.27;99744.84;5073026;27;45235;-75
2022/04/24 06:27:46;;;;;;;;;24.75;22.25;;;;;14.64;95.16;99733.41;5079342;28;45307;-74
2022/04/24 06:30:12;;;;;;;;;24.50;24.50;;;;;14.72;94.47;99739.63;5070223;27;46230;-74
2022/04/24 06:32:41;;;;;;;;;23.75;21.50;;;;;14.68;93.83;99737.84;5072567;27;45395;-73
2022/04/24 06:35:12;;;;;;;;;24.50;23.75;;;;;14.81;93.59;99751.84;5071622;28;45480;-72
2022/04/24 06:37:39;;;;;;;;;24.50;24.50;;;;;14.88;92.46;99760.63;5087305;27;45463;-76
2022/04/24 06:40:09;;;;;;;;;29.25;25.50;;;;;14.90;92.76;99764.13;5087900;27;45329;-78
2022/04/24 06:42:35;;;;;;;;;26.75;25.25;;;;;14.94;92.08;99766.75;5080817;27;45736;-77
2022/04/24 06:45:02;;;;;;;;;25.25;23.00;;;;;14.99;92.50;99777.22;5086996;27;45378;-79
2022/04/24 06:47:28;;;;;;;;;28.50;26.75;;;;;15.02;91.74;99767.72;5091835;27;45399;-73
2022/04/24 06:49:55;;;;;;;;;28.25;27.00;;;;;15.00;90.90;99768.56;5086800;27;45826;-74
2022/04/24 06:52:21;;;;;;;;;31.50;26.25;;;;;15.05;91.63;99766.00;5085614;27;45425;-77
2022/04/24 06:54:47;;;;;;;;;29.25;27.25;;;;;15.07;91.84;99762.53;5088735;27;45378;-75
2022/04/24 06:57:13;;;;;;;;;28.00;26.25;;;;;15.04;91.50;99759.03;5089391;27;45543;-76
2022/04/24 06:59:39;;;;;;;;;26.75;25.50;;;;;15.04;91.80;99761.63;5080916;27;45399;-74
2022/04/24 07:02:05;;;;;;;;;31.75;29.50;;;;;15.13;91.55;99767.81;5086059;27;45460;-84
2022/04/24 07:04:30;;;;;;;;;34.00;30.25;;;;;15.18;91.30;99770.47;5087380;27;45289;-74
2022/04/24 07:06:57;;;;;;;;;29.75;29.25;;;;;15.21;91.02;99764.41;5088514;27;45615;-77
2022/04/24 07:09:23;;;;;;;;;28.75;28.75;;;;;15.28;91.11;99767.09;5085752;27;46326;-78
2022/04/24 07:11:49;;;;;;;;;26.50;25.00;;;;;15.36;91.30;99774.97;5078356;27;45422;-77
2022/04/24 07:14:15;;;;;;;;;35.00;31.25;;;;;15.34;90.72;99761.06;5078472;27;45248;-74
2022/04/24 07:16:41;;;;;;;;;31.00;29.50;;;;;15.46;89.86;99768.97;5078589;27;45385;-72
2022/04/24 07:19:06;;;;;;;;;33.25;30.50;;;;;15.47;89.97;99773.34;5080626;28;46657;-73
2022/04/24 07:21:32;;;;;;;;;40.00;34.50;;;;;15.54;89.85;99773.38;5080611;27;45349;-81
2022/04/24 07:23:58;;;;;;;;;33.00;31.25;;;;;15.67;89.35;99779.53;5079562;27;46078;-78
2022/04/24 07:26:24;;;;;;;;;41.25;35.25;;;;;15.63;88.76;99768.22;5081076;27;45591;-78
2022/04/24 07:28:50;;;;;;;;;45.25;36.00;;;;;15.70;87.90;99761.31;5080997;27;45474;-76
2022/04/24 07:31:19;;;;;;;;;41.50;33.25;;;;;15.90;86.63;99780.59;5078467;27;46212;-78
2022/04/24 07:33:45;;;;;;;;;41.75;32.50;;;;;15.90;85.58;99770.16;5079350;27;45274;-79
2022/04/24 07:36:11;;;;;;;;;33.75;29.00;;;;;16.02;84.77;99773.72;5079793;27;45240;-77
2022/04/24 07:38:37;;;;;;;;;33.25;31.50;;;;;16.15;82.48;99792.94;5079517;27;46190;-81
2022/04/24 07:41:03;;;;;;;;;37.25;33.50;;;;;16.16;82.00;99798.19;5078673;27;45323;-81
2022/04/24 07:43:29;;;;;;;;;42.75;33.75;;;;;16.20;82.55;99799.06;5079485;27;45418;-78
2022/04/24 07:45:55;;;;;;;;;37.25;32.25;;;;;16.27;82.80;99795.59;5078894;27;45324;-88
2022/04/24 07:48:22;;;;;;;;;34.00;29.00;;;;;16.22;82.43;99785.13;5080005;27;46710;-80
2022/04/24 07:50:52;;;;;;;;;38.25;33.25;;;;;16.38;81.64;99799.16;5079944;27;45977;-78
2022/04/24 07:53:20;;;;;;;;;38.25;32.75;;;;;16.40;81.21;99794.81;5079086;27;45801;-85
2022/04/24 07:55:47;;;;;;;;;42.00;35.00;;;;;16.22;81.38;99761.63;5079983;27;45341;-77
2022/04/24 07:58:14;;;;;;;;;35.00;32.50;;;;;16.43;80.30;99783.50;5078911;27;45431;-75
2022/04/24 08:00:41;;;;;;;;;36.00;32.50;;;;;16.51;79.27;99792.25;5080384;27;45731;-79
2022/04/24 08:03:11;;;;;;;;;45.00;36.25;;;;;16.67;79.20;99802.75;5080137;27;45323;-79
2022/04/24 08:05:41;;;;;;;;;41.75;35.75;;;;;16.66;78.83;99796.66;5087590;27;45329;-77
2022/04/24 08:08:09;;;;;;;;;44.75;35.00;;;;;16.78;79.07;99819.34;5083819;27;46283;-76
2022/04/24 08:10:41;;;;;;;;;41.75;33.75;;;;;16.73;78.56;99794.94;5083983;27;45381;-89
2022/04/24 08:13:08;;;;;;;;;36.50;32.25;;;;;16.76;77.51;99788.84;5088136;27;45508;-84
2022/04/24 08:15:35;;;;;;;;;44.50;36.00;;;;;16.90;76.74;99815.88;5085132;27;45401;-82
2022/04/24 08:18:03;;;;;;;;;36.50;33.25;;;;;16.87;75.70;99818.50;5077314;27;47050;-79
2022/04/24 08:20:29;;;;;;;;;34.50;30.50;;;;;16.84;75.94;99816.78;5078365;27;45790;-88
2022/04/24 08:22:59;;;;;;;;;36.00;33.00;;;;;16.82;76.16;99813.28;5078467;28;45472;-82
2022/04/24 08:25:27;;;;;;;;;37.25;34.00;;;;;16.71;75.15;99794.91;5081722;27;45292;-86
2022/04/24 08:27:54;;;;;;;;;41.00;35.25;;;;;16.75;75.37;99810.63;5081059;27;45449;-84
2022/04/24 08:30:23;;;;;;;;;38.50;31.50;;;;;16.81;75.60;99829.81;5079851;27;45786;-81
2022/04/24 08:32:50;;;;;;;;;41.00;34.25;;;;;16.84;75.96;99823.72;5078078;27;45514;-84
2022/04/24 08:35:20;;;;;;;;;43.25;35.50;;;;;16.71;74.88;99799.28;5078381;27;45348;-83
2022/04/24 08:37:49;;;;;;;;;39.25;33.50;;;;;16.72;74.39;99801.03;5060765;28;47626;-80
2022/04/24 08:40:17;;;;;;;;;36.00;32.50;;;;;16.65;74.19;99781.84;5075592;27;45488;-80
2022/04/24 08:42:44;;;;;;;;;38.00;32.25;;;;;16.91;73.12;99829.84;5077413;28;45407;-77
2022/04/24 08:45:12;;;;;;;;;44.50;35.75;;;;;16.71;73.16;99792.31;5077297;27;45595;-77
2022/04/24 08:47:38;;;;;;;;;36.50;34.00;;;;;16.91;74.10;99819.38;5076973;27;45410;-78
2022/04/24 08:50:05;;;;;;;;;41.75;34.50;;;;;16.93;74.09;99823.75;5075944;27;45992;-79
2022/04/24 08:52:31;;;;;;;;;37.25;32.25;;;;;16.98;74.25;99826.41;5075977;27;45347;-77
2022/04/24 08:54:59;;;;;;;;;35.75;33.25;;;;;17.01;74.40;99829.03;5075808;27;45589;-77
2022/04/24 08:57:30;;;;;;;;;42.25;34.25;;;;;17.04;74.63;99825.53;5075773;27;46140;-77
2022/04/24 09:00:07;;;;;;;;;40.50;34.50;;;;;17.00;73.52;99812.47;5076787;27;45349;-78
2022/04/24 09:02:33;;;;;;;;;38.75;34.75;;;;;17.06;72.51;99822.06;5076645;27;45323;-77
2022/04/24 09:04:59;;;;;;;;;37.00;33.50;;;;;17.12;71.28;99831.66;5076319;27;45396;-77
2022/04/24 09:07:33;;;;;;;;;30.25;29.50;;;;;17.06;70.32;99813.34;5075279;28;45359;-77
2022/04/24 09:10:04;;;;;;;;;38.50;32.00;;;;;17.12;69.67;99822.09;5077481;27;45381;-76
2022/04/24 09:12:30;;;;;;;;;35.25;32.00;;;;;17.15;69.76;99827.34;5078802;27;45427;-78
2022/04/24 09:14:58;;;;;;;;;36.50;32.50;;;;;17.27;70.05;99836.06;5078127;27;45666;-77
2022/04/24 09:17:27;;;;;;;;;35.75;32.75;;;;;17.29;70.17;99840.44;5077657;28;45399;-82
2022/04/24 09:19:54;;;;;;;;;41.75;35.25;;;;;17.32;70.30;99834.31;5075635;27;45984;-78
2022/04/24 09:22:20;;;;;;;;;40.50;35.00;;;;;17.46;70.60;99847.41;5082746;27;45365;-73
2022/04/24 09:24:57;;;;;;;;;38.50;34.25;;;;;17.45;71.52;99828.22;5078435;27;45356;-78
2022/04/24 09:27:26;;;;;;;;;42.50;34.25;;;;;17.64;71.05;99852.69;5078321;27;45784;-84
2022/04/24 09:29:55;;;;;;;;;41.75;32.50;;;;;17.61;70.11;99834.34;5078367;27;45175;-74
2022/04/24 09:32:22;;;;;;;;;37.25;34.50;;;;;17.78;70.06;99862.25;5075895;27;45421;-82
2022/04/24 09:34:48;;;;;;;;;40.00;35.50;;;;;17.84;69.76;99854.41;5094030;27;45345;-76
2022/04/24 09:37:13;;;;;;;;;37.75;35.00;;;;;17.88;68.80;99855.28;5079657;27;45625;-76
2022/04/24 09:39:40;;;;;;;;;36.75;31.50;;;;;17.83;67.40;99855.28;5096563;27;45255;-77
2022/04/24 09:42:08;;;;;;;;;38.50;31.75;;;;;17.85;67.91;99844.81;5095759;27;45408;-78
2022/04/24 09:44:38;;;;;;;;;38.00;32.50;;;;;17.95;67.81;99865.75;5095912;27;45485;-77
2022/04/24 09:47:05;;;;;;;;;32.50;32.00;;;;;18.03;67.61;99865.75;5096550;27;45490;-77
2022/04/24 09:49:39;;;;;;;;;37.50;31.25;;;;;18.06;68.10;99854.44;5097395;27;46022;-78
2022/04/24 09:52:12;;;;;;;;;33.00;29.75;;;;;18.07;67.72;99846.56;5095559;27;45479;-77
2022/04/24 09:54:42;;;;;;;;;35.75;33.50;;;;;18.16;66.31;99861.41;5096892;27;45302;-78
2022/04/24 09:57:10;;;;;;;;;31.00;25.50;;;;;18.19;64.94;99863.13;5096097;27;45376;-77
2022/04/24 09:59:38;;;;;;;;;49.75;37.75;;;;;18.22;64.52;99865.75;5096607;27;45884;-78
2022/04/24 10:02:12;;;;;;;;;33.75;31.50;;;;;18.25;63.70;99863.09;5082050;27;45222;-78
2022/04/24 10:04:39;;;;;;;;;34.25;30.25;;;;;18.22;63.19;99864.00;5077177;27;45413;-78
2022/04/24 10:07:09;;;;;;;;;34.00;31.50;;;;;18.29;63.77;99866.63;5077719;27;45301;-78
2022/04/24 10:09:37;;;;;;;;;31.50;27.25;;;;;18.26;63.57;99862.22;5077548;27;46074;-76
2022/04/24 10:12:07;;;;;;;;;33.00;30.25;;;;;18.20;64.05;99859.63;5077998;27;45386;-77
2022/04/24 10:15:10;;;;;;;;;39.00;32.50;;;;;18.28;64.15;99876.22;5076379;27;45503;-76
2022/04/24 10:17:45;;;;;;;;;35.50;30.25;;;;;18.29;63.54;99882.34;5061579;28;47732;-77
2022/04/24 10:20:42;;;;;;;;;29.00;23.00;;;;;18.30;63.60;99878.84;5074826;28;45319;-78
2022/04/24 10:23:09;;;;;;;;;30.00;28.00;;;;;18.28;62.61;99881.44;5075538;27;45457;-77
2022/04/24 10:25:43;;;;;;;;;32.75;29.75;;;;;18.27;63.15;99886.69;5075670;27;45558;-77
2022/04/24 10:28:13;;;;;;;;;41.00;28.75;;;;;18.25;63.24;99892.81;5075185;27;45521;-77
2022/04/24 10:30:40;;;;;;;;;30.25;27.75;;;;;18.23;62.94;99891.09;5075226;27;45318;-79
2022/04/24 10:33:26;;;;;;;;;38.50;33.75;;;;;18.24;63.26;99884.97;5075315;27;45255;-80
2022/04/24 10:35:54;;;;;;;;;32.75;29.75;;;;;18.24;63.65;99885.81;5075737;27;45461;-79
2022/04/24 10:38:22;;;;;;;;;31.00;29.50;;;;;18.23;63.36;99875.34;5074544;28;45477;-79
2022/04/24 10:41:03;;;;;;;;;32.25;29.50;;;;;18.22;62.74;99881.47;5075341;27;45322;-79
2022/04/24 10:43:49;;;;;;;;;34.00;28.75;;;;;18.24;62.95;99888.44;5075366;27;45331;-79
2022/04/24 10:46:18;;;;;;;;;30.75;27.25;;;;;18.25;62.82;99902.41;5075180;28;45444;-79
2022/04/24 10:48:46;;;;;;;;;35.50;29.50;;;;;18.20;63.83;99912.03;5076456;27;45314;-78
2022/04/24 10:51:12;;;;;;;;;28.25;23.50;;;;;18.20;64.20;99904.19;5077086;27;45237;-78
2022/04/24 10:53:52;;;;;;;;;33.50;29.00;;;;;18.25;64.06;99916.41;5076743;27;45402;-77
2022/04/24 10:56:18;;;;;;;;;35.75;30.75;;;;;18.28;64.39;99919.88;5076002;27;45547;-77
2022/04/24 10:58:44;;;;;;;;;37.25;31.50;;;;;18.38;64.53;99922.47;5074938;27;45338;-77
2022/04/24 11:01:12;;;;;;;;;31.00;29.75;;;;;18.40;64.24;99915.50;5075833;27;45405;-79
2022/04/24 11:03:42;;;;;;;;;29.00;27.50;;;;;18.47;64.04;99912.84;5078573;27;45315;-77
2022/04/24 11:06:18;;;;;;;;;32.00;29.25;;;;;18.52;64.43;99911.09;5078443;27;45481;-77
2022/04/24 11:08:44;;;;;;;;;33.50;30.25;;;;;18.59;63.70;99923.31;5077024;27;47530;-77
2022/04/24 11:11:13;;;;;;;;;31.50;30.50;;;;;18.66;63.24;99916.31;5078190;27;45285;-77
2022/04/24 11:13:39;;;;;;;;;28.75;27.75;;;;;18.76;62.68;99919.78;5077573;27;45677;-78
2022/04/24 11:16:06;;;;;;;;;33.50;31.25;;;;;18.88;63.23;99910.13;5073823;28;45269;-76
2022/04/24 11:18:33;;;;;;;;;28.75;26.00;;;;;19.08;62.57;99924.91;5078846;27;46444;-81